createdAt,value
2023-02-26T00:01:34.484Z,2.62
2023-02-26T00:04:03.186Z,2.60
2023-02-26T00:06:32.509Z,2.44
2023-02-26T00:08:59.397Z,2.34
2023-02-26T00:11:26.189Z,2.32
2023-02-26T00:13:53.054Z,2.27
2023-02-26T00:16:33.109Z,2.20
2023-02-26T00:19:02.219Z,2.22
2023-02-26T00:21:29.975Z,2.09
2023-02-26T00:23:57.188Z,2.10
2023-02-26T00:26:26.971Z,2.13
2023-02-26T00:28:54.181Z,2.12
2023-02-26T00:31:24.667Z,2.14
2023-02-26T00:33:53.584Z,2.20
2023-02-26T00:36:41.720Z,2.24
2023-02-26T00:39:26.429Z,2.22
2023-02-26T00:41:53.142Z,2.23
2023-02-26T00:44:19.910Z,2.18
2023-02-26T00:46:56.386Z,2.05
2023-02-26T00:50:00.627Z,2.17
2023-02-26T00:52:41.865Z,2.16
2023-02-26T00:55:10.486Z,1.97
2023-02-26T00:57:37.068Z,1.96
2023-02-26T01:00:07.768Z,1.91
2023-02-26T01:02:41.088Z,1.82
2023-02-26T01:05:09.092Z,1.69
2023-02-26T01:07:46.480Z,1.71
2023-02-26T01:10:14.361Z,1.82
2023-02-26T01:12:44.235Z,1.77
2023-02-26T01:15:14.101Z,1.68
2023-02-26T01:17:55.078Z,1.58
2023-02-26T01:20:28.805Z,1.54
2023-02-26T01:22:57.363Z,1.64
2023-02-26T01:25:30.355Z,1.65
2023-02-26T01:27:57.647Z,1.61
2023-02-26T01:30:25.265Z,1.54
2023-02-26T01:33:06.967Z,1.59
2023-02-26T01:35:39.182Z,1.48
2023-02-26T01:38:44.802Z,1.63
2023-02-26T01:41:33.581Z,1.54
2023-02-26T01:44:23.970Z,1.61
2023-02-26T01:47:15.680Z,1.45
2023-02-26T01:49:45.730Z,1.45
2023-02-26T01:52:49.574Z,1.32
2023-02-26T01:55:23.670Z,1.16
2023-02-26T01:57:53.903Z,1.23
2023-02-26T02:00:20.825Z,1.27
2023-02-26T02:02:47.893Z,1.17
2023-02-26T02:05:25.339Z,1.14
2023-02-26T02:07:51.974Z,1.05
2023-02-26T02:10:18.664Z,1.05
2023-02-26T02:13:02.535Z,1.08
2023-02-26T02:15:45.536Z,1.09
2023-02-26T02:18:30.011Z,1.06
2023-02-26T02:21:24.405Z,1.06
2023-02-26T02:23:57.318Z,1.08
2023-02-26T02:26:48.012Z,1.05
2023-02-26T02:29:23.613Z,1.01
2023-02-26T02:31:55.682Z,0.96
2023-02-26T02:35:00.512Z,1.06
2023-02-26T02:37:46.383Z,0.95
2023-02-26T02:40:22.043Z,1.02
2023-02-26T02:42:57.982Z,1.01
2023-02-26T02:45:34.325Z,1.05
2023-02-26T02:48:09.031Z,1.02
2023-02-26T02:50:46.753Z,0.98
2023-02-26T02:53:17.205Z,0.93
2023-02-26T02:55:50.998Z,1.02
2023-02-26T02:58:22.931Z,0.91
2023-02-26T03:00:55.848Z,0.90
2023-02-26T03:03:25.318Z,0.94
2023-02-26T03:05:52.835Z,0.87
2023-02-26T03:08:25.866Z,0.85
2023-02-26T03:10:52.363Z,0.84
2023-02-26T03:13:23.369Z,0.89
2023-02-26T03:16:01.856Z,0.98
2023-02-26T03:19:07.113Z,1.09
2023-02-26T03:21:47.905Z,0.95
2023-02-26T03:24:29.387Z,0.89
2023-02-26T03:27:07.652Z,0.85
2023-02-26T03:30:16.165Z,0.76
2023-02-26T03:33:00.809Z,0.73
2023-02-26T03:35:51.533Z,0.61
2023-02-26T03:38:36.537Z,0.69
2023-02-26T03:41:12.630Z,0.59
2023-02-26T03:43:42.454Z,0.60
2023-02-26T03:46:13.960Z,0.66
2023-02-26T03:48:40.524Z,0.47
2023-02-26T03:51:14.756Z,0.56
2023-02-26T03:53:54.112Z,0.45
2023-02-26T03:56:33.301Z,0.41
2023-02-26T03:58:59.809Z,0.37
2023-02-26T04:01:33.284Z,0.40
2023-02-26T04:04:26.606Z,0.55
2023-02-26T04:06:56.681Z,0.44
2023-02-26T04:09:23.303Z,0.40
2023-02-26T04:11:53.091Z,0.39
2023-02-26T04:14:21.241Z,0.33
2023-02-26T04:16:47.858Z,0.38
2023-02-26T04:19:14.388Z,0.34
2023-02-26T04:21:40.849Z,0.33
2023-02-26T04:24:07.428Z,0.35
2023-02-26T04:26:33.908Z,0.21
2023-02-26T04:29:00.346Z,0.19
2023-02-26T04:31:26.927Z,0.13
2023-02-26T04:33:53.373Z,0.14
2023-02-26T04:36:23.518Z,0.21
2023-02-26T04:38:52.514Z,0.30
2023-02-26T04:41:18.960Z,0.22
2023-02-26T04:43:45.386Z,0.14
2023-02-26T04:46:11.996Z,0.07
2023-02-26T04:48:38.614Z,0.20
2023-02-26T04:51:05.346Z,0.02
2023-02-26T04:53:31.938Z,0.06
2023-02-26T04:55:58.397Z,0.08
2023-02-26T04:58:24.944Z,0.12
2023-02-26T05:00:55.457Z,0.09
2023-02-26T05:03:24.067Z,-0.17
2023-02-26T05:05:50.568Z,0.11
2023-02-26T05:08:17.160Z,0.15
2023-02-26T05:10:43.665Z,-0.01
2023-02-26T05:13:10.150Z,-0.15
2023-02-26T05:15:36.831Z,0.02
2023-02-26T05:18:03.952Z,-0.08
2023-02-26T05:20:30.463Z,-0.07
2023-02-26T05:22:56.947Z,-0.11
2023-02-26T05:25:30.787Z,-0.06
2023-02-26T05:27:57.317Z,-0.15
2023-02-26T05:30:26.739Z,0.04
2023-02-26T05:32:57.525Z,0.02
2023-02-26T05:35:26.803Z,-0.03
2023-02-26T05:37:54.535Z,0.08
2023-02-26T05:40:20.984Z,-0.09
2023-02-26T05:42:47.430Z,-0.17
2023-02-26T05:45:14.189Z,-0.36
2023-02-26T05:47:40.739Z,-0.34
2023-02-26T05:50:08.118Z,-0.35
2023-02-26T05:52:34.781Z,-0.31
2023-02-26T05:55:02.615Z,-0.47
2023-02-26T05:57:29.174Z,-0.43
2023-02-26T05:59:55.818Z,-0.83
2023-02-26T06:02:25.053Z,-0.55
2023-02-26T06:04:51.534Z,-0.56
2023-02-26T06:07:18.349Z,-0.71
2023-02-26T06:09:44.818Z,-0.82
2023-02-26T06:12:11.365Z,-0.80
2023-02-26T06:14:37.830Z,-0.83
2023-02-26T06:17:04.770Z,-0.88
2023-02-26T06:19:31.292Z,-0.91
2023-02-26T06:21:58.083Z,-0.83
2023-02-26T06:24:27.745Z,-0.88
2023-02-26T06:26:57.072Z,-0.97
2023-02-26T06:29:27.700Z,-1.43
2023-02-26T06:31:57.789Z,-1.27
2023-02-26T06:34:28.275Z,-1.19
2023-02-26T06:36:57.588Z,-1.21
2023-02-26T06:39:28.429Z,-1.24
2023-02-26T06:41:57.618Z,-1.13
2023-02-26T06:44:36.195Z,-1.57
2023-02-26T06:47:03.049Z,-1.11
2023-02-26T06:49:29.502Z,-1.14
2023-02-26T06:51:56.748Z,-1.43
2023-02-26T06:54:26.222Z,-1.19
2023-02-26T06:56:55.199Z,-1.13
2023-02-26T06:59:22.030Z,-0.95
2023-02-26T07:01:48.723Z,-1.09
2023-02-26T07:04:15.237Z,-1.05
2023-02-26T07:06:41.934Z,-1.00
2023-02-26T07:09:08.662Z,-0.98
2023-02-26T07:11:35.293Z,-0.88
2023-02-26T07:14:02.243Z,-1.05
2023-02-26T07:16:28.995Z,-0.91
2023-02-26T07:18:58.291Z,-0.83
2023-02-26T07:21:25.982Z,-0.75
2023-02-26T07:23:52.466Z,-0.45
2023-02-26T07:26:18.997Z,-0.36
2023-02-26T07:28:45.414Z,-0.19
2023-02-26T07:31:11.934Z,-0.02
2023-02-26T07:33:39.849Z,-0.01
2023-02-26T07:36:07.209Z,0.13
2023-02-26T07:38:34.053Z,0.43
2023-02-26T07:41:01.107Z,0.59
2023-02-26T07:43:27.963Z,0.91
2023-02-26T07:45:57.249Z,1.25
2023-02-26T07:48:27.162Z,1.50
2023-02-26T07:50:56.605Z,1.91
2023-02-26T07:53:33.314Z,2.73
2023-02-26T07:56:04.162Z,3.01
2023-02-26T07:58:30.637Z,2.93
2023-02-26T08:00:58.387Z,3.26
2023-02-26T08:03:27.432Z,3.25
2023-02-26T08:05:57.110Z,3.25
2023-02-26T08:08:26.027Z,3.51
2023-02-26T08:10:54.837Z,3.55
2023-02-26T08:13:21.332Z,3.65
2023-02-26T08:15:51.063Z,3.49
2023-02-26T08:18:17.586Z,3.62
2023-02-26T08:20:44.228Z,3.84
2023-02-26T08:23:10.957Z,4.33
2023-02-26T08:25:37.437Z,4.69
2023-02-26T08:28:04.000Z,4.82
2023-02-26T08:30:30.882Z,5.23
2023-02-26T08:32:57.397Z,5.31
2023-02-26T08:35:26.846Z,5.53
2023-02-26T08:37:54.727Z,5.46
2023-02-26T08:40:21.294Z,5.28
2023-02-26T08:42:48.047Z,5.61
2023-02-26T08:45:14.598Z,5.65
2023-02-26T08:47:55.538Z,5.46
2023-02-26T08:50:26.725Z,5.66
2023-02-26T08:52:55.279Z,5.56
2023-02-26T08:55:28.516Z,5.89
2023-02-26T08:57:55.938Z,6.08
2023-02-26T09:00:24.691Z,6.44
2023-02-26T09:02:51.246Z,6.13
2023-02-26T09:05:18.565Z,6.35
2023-02-26T09:07:45.632Z,6.29
2023-02-26T09:10:13.922Z,6.26
2023-02-26T09:12:40.434Z,6.63
2023-02-26T09:15:10.793Z,7.16
2023-02-26T09:17:37.728Z,7.39
2023-02-26T09:20:05.300Z,7.15
2023-02-26T09:22:32.346Z,6.40
2023-02-26T09:24:59.228Z,6.34
2023-02-26T09:27:28.775Z,5.94
2023-02-26T09:29:58.054Z,6.23
2023-02-26T09:32:27.612Z,6.37
2023-02-26T09:34:57.437Z,7.03
2023-02-26T09:37:27.438Z,7.52
2023-02-26T09:39:55.776Z,8.11
2023-02-26T09:42:34.455Z,8.20
2023-02-26T09:45:02.398Z,8.00
2023-02-26T09:47:50.863Z,7.66
2023-02-26T09:50:27.481Z,7.72
2023-02-26T09:53:02.264Z,7.47
2023-02-26T09:55:39.991Z,7.17
2023-02-26T09:58:16.869Z,7.49
2023-02-26T10:00:55.528Z,7.13
2023-02-26T10:03:39.369Z,7.30
2023-02-26T10:06:06.108Z,6.79
2023-02-26T10:09:10.159Z,7.61
2023-02-26T10:12:02.614Z,7.07
2023-02-26T10:14:41.922Z,7.31
2023-02-26T10:17:20.678Z,8.31
2023-02-26T10:19:58.661Z,7.95
2023-02-26T10:22:37.775Z,7.64
2023-02-26T10:25:28.725Z,8.21
2023-02-26T10:28:07.281Z,8.15
2023-02-26T10:30:44.334Z,8.60
2023-02-26T10:33:46.162Z,7.74
2023-02-26T10:36:43.165Z,8.50
2023-02-26T10:39:17.169Z,8.50
2023-02-26T10:41:45.159Z,9.22
2023-02-26T10:44:37.452Z,9.70
2023-02-26T10:47:25.628Z,9.39
2023-02-26T10:50:06.826Z,9.78
2023-02-26T10:52:36.164Z,9.69
2023-02-26T10:55:27.728Z,9.47
2023-02-26T10:58:04.093Z,9.66
2023-02-26T11:00:30.784Z,9.15
2023-02-26T11:02:58.202Z,8.17
2023-02-26T11:05:29.926Z,8.05
2023-02-26T11:08:01.959Z,8.60
2023-02-26T11:10:44.966Z,8.68
2023-02-26T11:13:11.407Z,9.06
2023-02-26T11:15:38.092Z,8.37
2023-02-26T11:18:04.950Z,7.48
2023-02-26T11:20:37.841Z,8.17
2023-02-26T11:23:12.941Z,7.33
2023-02-26T11:25:40.443Z,7.00
2023-02-26T11:28:20.166Z,6.52
2023-02-26T11:30:49.382Z,7.05
2023-02-26T11:33:28.261Z,6.51
2023-02-26T11:36:06.467Z,6.17
2023-02-26T11:38:33.912Z,5.32
2023-02-26T11:41:02.040Z,5.69
2023-02-26T11:43:37.341Z,5.23
2023-02-26T11:46:06.060Z,5.53
2023-02-26T11:48:46.109Z,6.71
2023-02-26T11:51:18.797Z,7.28
2023-02-26T11:53:57.779Z,6.50
2023-02-26T11:56:40.282Z,6.22
2023-02-26T11:59:16.669Z,6.90
2023-02-26T12:01:43.314Z,6.71
2023-02-26T12:04:12.575Z,6.09
2023-02-26T12:06:39.365Z,5.60
2023-02-26T12:09:14.270Z,5.39
2023-02-26T12:11:50.241Z,5.04
2023-02-26T12:14:44.281Z,5.14
2023-02-26T12:17:26.398Z,5.23
2023-02-26T12:20:20.280Z,4.98
2023-02-26T12:22:57.393Z,4.85
2023-02-26T12:25:59.939Z,4.72
2023-02-26T12:28:38.249Z,4.36
2023-02-26T12:31:37.144Z,4.28
2023-02-26T12:34:21.669Z,5.36
2023-02-26T12:37:29.087Z,6.38
2023-02-26T12:40:13.410Z,5.92
2023-02-26T12:43:04.122Z,5.54
2023-02-26T12:45:51.053Z,6.55
2023-02-26T12:48:40.498Z,6.81
2023-02-26T12:51:15.526Z,6.20
2023-02-26T12:53:50.824Z,5.73
2023-02-26T12:56:39.670Z,4.72
2023-02-26T12:59:13.558Z,4.51
2023-02-26T13:02:01.969Z,3.99
2023-02-26T13:04:44.402Z,3.47
2023-02-26T13:07:23.169Z,3.52
2023-02-26T13:10:04.276Z,3.58
2023-02-26T13:12:38.877Z,4.74
2023-02-26T13:15:20.199Z,4.92
2023-02-26T13:18:11.412Z,4.46
2023-02-26T13:20:42.617Z,4.26
2023-02-26T13:23:23.624Z,3.79
2023-02-26T13:25:59.353Z,4.57
2023-02-26T13:28:32.041Z,5.22
2023-02-26T13:31:01.604Z,5.31
2023-02-26T13:33:32.786Z,5.80
2023-02-26T13:36:01.378Z,5.33
2023-02-26T13:38:30.738Z,4.76
2023-02-26T13:41:40.847Z,4.40
2023-02-26T13:44:33.529Z,4.13
2023-02-26T13:47:42.704Z,4.61
2023-02-26T13:50:43.967Z,4.19
2023-02-26T13:53:41.436Z,4.00
2023-02-26T13:56:14.189Z,3.67
2023-02-26T13:58:44.271Z,3.82
2023-02-26T14:01:17.096Z,4.38
2023-02-26T14:04:18.874Z,4.64
2023-02-26T14:06:47.637Z,4.34
2023-02-26T14:09:22.910Z,3.95
2023-02-26T14:11:55.423Z,3.76
2023-02-26T14:14:21.837Z,3.61
2023-02-26T14:17:01.540Z,3.83
2023-02-26T14:19:33.012Z,3.94
2023-02-26T14:22:19.304Z,4.09
2023-02-26T14:25:20.342Z,4.36
2023-02-26T14:27:48.663Z,4.25
2023-02-26T14:30:18.566Z,3.94
2023-02-26T14:32:53.123Z,3.64
2023-02-26T14:35:33.347Z,3.35
2023-02-26T14:38:14.987Z,4.03
2023-02-26T14:40:52.022Z,4.50
2023-02-26T14:43:37.877Z,4.70
2023-02-26T14:46:07.382Z,4.15
2023-02-26T14:48:34.742Z,3.68
2023-02-26T14:51:26.548Z,3.41
2023-02-26T14:54:11.243Z,3.44
2023-02-26T14:57:06.678Z,3.33
2023-02-26T14:59:39.213Z,3.11
2023-02-26T15:02:29.865Z,3.22
2023-02-26T15:05:30.634Z,3.24
2023-02-26T15:08:04.637Z,4.10
2023-02-26T15:11:00.745Z,4.68
2023-02-26T15:13:39.341Z,4.38
2023-02-26T15:16:18.631Z,4.19
2023-02-26T15:19:15.302Z,4.35
2023-02-26T15:22:13.106Z,4.04
2023-02-26T15:24:40.643Z,3.61
2023-02-26T15:27:13.943Z,3.54
2023-02-26T15:29:42.130Z,3.17
2023-02-26T15:32:25.968Z,3.31
2023-02-26T15:35:08.039Z,3.17
2023-02-26T15:37:35.541Z,3.08
2023-02-26T15:40:05.896Z,3.30
2023-02-26T15:42:38.469Z,3.16
2023-02-26T15:45:32.025Z,3.00
2023-02-26T15:48:14.783Z,2.88
2023-02-26T15:50:45.013Z,2.87
2023-02-26T15:53:18.772Z,2.58
2023-02-26T15:55:54.996Z,2.63
2023-02-26T15:58:52.118Z,2.71
2023-02-26T16:01:24.673Z,2.58
2023-02-26T16:03:53.545Z,2.35
2023-02-26T16:06:26.050Z,2.20
2023-02-26T16:08:52.713Z,1.96
2023-02-26T16:11:21.484Z,1.98
2023-02-26T16:13:50.985Z,2.22
2023-02-26T16:16:43.667Z,2.02
2023-02-26T16:19:28.266Z,2.05
2023-02-26T16:21:56.384Z,2.02
2023-02-26T16:24:23.402Z,1.93
2023-02-26T16:27:07.216Z,2.01
2023-02-26T16:29:37.249Z,1.95
2023-02-26T16:32:05.403Z,1.86
2023-02-26T16:34:43.526Z,1.67
2023-02-26T16:37:23.089Z,1.80
2023-02-26T16:40:04.990Z,1.63
2023-02-26T16:42:54.377Z,1.63
2023-02-26T16:45:35.834Z,1.85
2023-02-26T16:48:27.851Z,1.87
2023-02-26T16:51:20.263Z,1.82
2023-02-26T16:53:58.207Z,1.56
2023-02-26T16:56:29.773Z,1.68
2023-02-26T16:59:07.259Z,1.60
2023-02-26T17:01:42.678Z,1.67
2023-02-26T17:04:15.743Z,1.60
2023-02-26T17:06:42.499Z,1.46
2023-02-26T17:09:26.300Z,1.60
2023-02-26T17:12:04.455Z,1.49
2023-02-26T17:14:40.966Z,1.54
2023-02-26T17:17:08.043Z,1.38
2023-02-26T17:19:34.609Z,1.30
2023-02-26T17:22:05.421Z,1.02
2023-02-26T17:24:40.945Z,1.33
2023-02-26T17:27:15.388Z,1.37
2023-02-26T17:29:44.819Z,1.35
2023-02-26T17:32:17.911Z,1.36
2023-02-26T17:34:44.574Z,1.20
2023-02-26T17:37:13.268Z,1.31
2023-02-26T17:39:39.820Z,1.21
2023-02-26T17:42:14.485Z,1.29
2023-02-26T17:44:41.126Z,1.30
2023-02-26T17:47:14.666Z,1.26
2023-02-26T17:49:41.094Z,0.85
2023-02-26T17:52:08.189Z,1.08
2023-02-26T17:54:35.094Z,1.19
2023-02-26T17:57:07.197Z,1.24
2023-02-26T17:59:34.302Z,1.22
2023-02-26T18:02:02.226Z,1.21
2023-02-26T18:04:29.615Z,1.22
2023-02-26T18:06:56.197Z,1.05
2023-02-26T18:09:22.970Z,1.10
2023-02-26T18:11:51.308Z,0.93
2023-02-26T18:14:18.317Z,0.82
2023-02-26T18:19:41.503Z,0.88
2023-02-26T18:22:16.894Z,0.83
2023-02-26T18:24:43.930Z,0.98
2023-02-26T18:27:16.684Z,0.76
2023-02-26T18:29:44.289Z,1.01
2023-02-26T18:32:20.607Z,1.03
2023-02-26T18:37:44.163Z,1.00
2023-02-26T18:40:31.435Z,0.88
2023-02-26T18:42:57.950Z,0.91
2023-02-26T18:45:24.407Z,0.80
2023-02-26T18:47:51.064Z,0.88
2023-02-26T18:50:18.519Z,0.84
2023-02-26T18:52:47.070Z,0.89
2023-02-26T18:55:14.372Z,0.66
2023-02-26T18:57:42.559Z,0.73
2023-02-26T19:00:14.305Z,0.82
2023-02-26T19:02:42.787Z,0.71
2023-02-26T19:05:11.242Z,0.81
2023-02-26T19:07:37.995Z,0.86
2023-02-26T19:15:18.741Z,0.89
2023-02-26T19:16:48.435Z,0.31
2023-02-26T19:22:22.576Z,0.36
2023-02-26T19:24:49.788Z,0.46
2023-02-26T19:30:13.858Z,0.42
2023-02-26T19:32:40.768Z,0.70
2023-02-26T19:35:07.997Z,0.71
2023-02-26T19:37:36.390Z,0.64
2023-02-26T19:40:08.078Z,0.55
2023-02-26T19:42:39.668Z,0.61
2023-02-26T19:45:10.239Z,0.68
2023-02-26T19:51:27.194Z,0.74
2023-02-26T19:53:53.983Z,0.62
2023-02-26T19:56:20.436Z,0.66
2023-02-26T19:58:46.953Z,0.56
2023-02-26T20:01:13.410Z,0.53
2023-02-26T20:03:39.929Z,0.59
2023-02-26T20:06:11.382Z,0.52
2023-02-26T20:08:41.768Z,0.63
2023-02-26T20:11:11.154Z,0.54
2023-02-26T20:13:41.991Z,0.56
2023-02-26T20:16:12.027Z,0.50
2023-02-26T20:18:39.582Z,0.42
2023-02-26T20:21:14.915Z,0.53
2023-02-26T20:23:42.187Z,0.67
2023-02-26T20:26:14.949Z,0.60
2023-02-26T20:28:43.099Z,0.47
2023-02-26T20:31:11.505Z,0.54
2023-02-26T20:33:39.845Z,0.47
2023-02-26T20:36:10.418Z,0.55
2023-02-26T20:38:43.958Z,0.31
2023-02-26T20:41:11.184Z,0.34
2023-02-26T20:43:40.990Z,0.34
2023-02-26T20:46:10.490Z,0.28
2023-02-26T20:48:43.116Z,0.22
2023-02-26T20:51:12.205Z,0.36
2023-02-26T20:53:40.132Z,0.34
2023-02-26T20:56:09.888Z,0.31
2023-02-26T20:58:39.986Z,0.42
2023-02-26T21:01:10.479Z,0.34
2023-02-26T21:03:38.455Z,0.33
2023-02-26T21:06:08.259Z,0.40
2023-02-26T21:08:35.482Z,0.36
2023-02-26T21:11:02.700Z,0.25
2023-02-26T21:13:29.167Z,0.21
2023-02-26T21:15:57.221Z,0.43
2023-02-26T21:18:23.900Z,0.53
2023-02-26T21:20:50.797Z,0.49
2023-02-26T21:23:18.309Z,0.54
2023-02-26T21:25:44.850Z,0.39
2023-02-26T21:28:11.316Z,0.49
2023-02-26T21:30:40.469Z,0.68
2023-02-26T21:33:10.171Z,0.68
2023-02-26T21:35:37.877Z,0.52
2023-02-26T21:38:04.382Z,0.55
2023-02-26T21:40:32.006Z,0.54
2023-02-26T21:42:58.477Z,0.59
2023-02-26T21:45:24.911Z,0.53
2023-02-26T21:47:51.493Z,0.48
2023-02-26T21:50:18.090Z,0.50
2023-02-26T21:52:45.164Z,0.43
2023-02-26T21:55:11.708Z,0.48
2023-02-26T21:57:41.644Z,0.29
2023-02-26T22:00:12.093Z,0.39
2023-02-26T22:02:43.241Z,0.52
2023-02-26T22:05:11.562Z,0.49
2023-02-26T22:07:40.965Z,0.40
2023-02-26T22:10:12.568Z,0.36
2023-02-26T22:12:41.913Z,0.34
2023-02-26T22:15:10.361Z,0.36
2023-02-26T22:17:37.191Z,0.41
2023-02-26T22:20:10.444Z,0.38
2023-02-26T22:22:41.249Z,0.40
2023-02-26T22:25:11.755Z,0.47
2023-02-26T22:27:41.510Z,0.34
2023-02-26T22:30:10.111Z,0.50
2023-02-26T22:32:42.616Z,0.41
2023-02-26T22:35:14.004Z,0.50
2023-02-26T22:37:43.973Z,0.52
2023-02-26T22:40:12.935Z,0.45
2023-02-26T22:42:43.996Z,0.41
2023-02-26T22:45:17.103Z,0.37
2023-02-26T22:47:45.575Z,0.15
2023-02-26T22:50:14.303Z,0.38
2023-02-26T22:52:44.394Z,0.13
2023-02-26T22:55:14.004Z,0.42
2023-02-26T22:57:43.737Z,0.31
2023-02-26T23:00:16.172Z,0.26
2023-02-26T23:02:42.829Z,0.28
2023-02-26T23:05:09.564Z,0.38
2023-02-26T23:07:37.335Z,0.39
2023-02-26T23:10:04.795Z,0.47
2023-02-26T23:12:31.322Z,0.33
2023-02-26T23:14:58.140Z,0.36
2023-02-26T23:17:24.666Z,0.25
2023-02-26T23:19:51.172Z,0.31
2023-02-26T23:22:17.648Z,0.29
2023-02-26T23:24:44.123Z,0.35
2023-02-26T23:27:10.605Z,0.32
2023-02-26T23:29:37.610Z,0.43
2023-02-26T23:32:04.172Z,0.32
2023-02-26T23:34:30.829Z,0.46
2023-02-26T23:36:57.270Z,0.31
2023-02-26T23:39:24.241Z,0.25
2023-02-26T23:41:50.678Z,0.27
2023-02-26T23:44:17.228Z,0.17
2023-02-26T23:46:44.825Z,0.27
2023-02-26T23:49:11.258Z,0.32
2023-02-26T23:51:38.471Z,0.38
2023-02-26T23:54:05.011Z,0.29
2023-02-26T23:56:31.488Z,0.23
2023-02-26T23:58:57.905Z,0.13
